Rockford, WA

10:18 PM PDT on September 22, 2014 (GMT -0700)
KIDWORLE2 | Change Station
CLOSE
Current Station
Personal Weather Station
Location: Worley, ID
Elevation: 2657 ft
Nearby Weather Stations

Elev 2657 ft 47.44 °N, 116.90 °W | Updated 1 minute ago

Mostly Cloudy
Mostly Cloudy
61.0 °F
Feels Like 61.0 °F
N
2.0
Wind Variable Wind from South
Gusts 3.0 mph

Today
High -- | Low -- °F
--% Chance of Precip.
Yesterday
High -- | Low -- °F
Precip. -- in
6:35 AM 6:46 PM
Waning Crescent, 1% visible
Pressure 29.88 in
Visibility 10.0 miles
Clouds Clear
Dew Point 44 °F
Humidity 53%
Rainfall 0.00 in
Snow Depth 0 in , 0 in , 0 in
UV 0 out of 12
Pollen 7.30 out of 12
PM2.5 Moderate
Flu Activity Not available.
METAR KSFF 230453Z 02003KT 10SM CLR 20/12 A2991 RMK AO2 SLP116 T02000117

More Conditions Fewer Conditions

Pressure 29.88 in
Visibility 10.0 miles
Clouds Clear
Dew Point 44 °F
Humidity 53%
Rainfall 0.00 in
Snow Depth 0 in , 0 in , 0 in
UV 0 out of 12
Pollen 7.30 out of 12
PM2.5 Moderate
Flu Activity Not available.
METAR KSFF 230453Z 02003KT 10SM CLR 20/12 A2991 RMK AO2 SLP116 T02000117

More Conditions Fewer Conditions

10-Day Weather Forecast

Almanac

Astronomy

Sep. 22, 2014 Rise Set
Actual Time 6:35 AM PDT 6:46 PM PDT
Civil Twilight 6:04 AM PDT 7:16 PM PDT
Nautical Twilight 5:28 AM PDT 7:52 PM PDT
Astronomical Twilight 4:51 AM PDT 8:29 PM PDT
Moon 5:04 AM PDT (9/22) 5:58 PM PDT (9/22)
Length of Visible Light 13h 11m
Length of Day
12h 10m
Tomorrow will be 3m 24s shorter.
Waning Crescent, 1% of the Moon is Illuminated
Sep 23
Waning Crescent
Sep 24
New
Oct 1
First Quarter
Oct 8
Full
Oct 15
Last Quarter

Yesterday's Extremes

State Highs State Lows

Community

WunderPhotos

Upload Photos

1,755,607 photos uploaded!

Nearby

Air Quality

  Air Quality AQ Index Pollutant
Yesterday Good
PM10
Yesterday Good
OZONE
Current Moderate
PM2.5
Monday Good
PM10
Monday Good
OZONE
Tuesday Good
PM10
Tuesday Good
OZONE

Snow Depth

Station Depth Elevation
Wells Creek 0 in 4200 ft
Rainy Pass 0 in 4780 ft
Park Creek Ridge 0 in 4600 ft
Alpine Meadows 0 in 3500 ft
Surprise Lakes 1 in 4250 ft

Earthquake Activity

City Distance Mag. Time & Date
No recent earthquake activity has been reported nearby.
Minimum magnitude displayed is 2.5.

Coastal Water Temperatures

Place Temperature
No Stations Reporting

Nearby Weather Stations